الملاحظات


إضافة رد
 
أدوات الموضوع إبحث في الموضوع
قديم 22-04-2019, 08:47 AM  
  مشاركة [ 1 ]
الصورة الرمزية محمد احمد عسيري
محمد احمد عسيري محمد احمد عسيري غير متواجد حالياً
Flying Way
 
تاريخ التسجيل: 16 - 03 - 2011
المشاركات: 13,108
شكر غيره: 2,919
تم شكره 6,406 مرة في 3,720 مشاركة
عدد المدوّنات: 52
معدل تقييم المستوى: 14553
محمد احمد عسيري يستحق الثقة والتقديرمحمد احمد عسيري يستحق الثقة والتقديرمحمد احمد عسيري يستحق الثقة والتقديرمحمد احمد عسيري يستحق الثقة والتقديرمحمد احمد عسيري يستحق الثقة والتقديرمحمد احمد عسيري يستحق الثقة والتقديرمحمد احمد عسيري يستحق الثقة والتقديرمحمد احمد عسيري يستحق الثقة والتقديرمحمد احمد عسيري يستحق الثقة والتقديرمحمد احمد عسيري يستحق الثقة والتقديرمحمد احمد عسيري يستحق الثقة والتقدير

مشاهدة أوسمتي

محمد احمد عسيري محمد احمد عسيري غير متواجد حالياً
Flying Way


الصورة الرمزية محمد احمد عسيري

مشاهدة ملفه الشخصي
تاريخ التسجيل: 16 - 03 - 2011
المشاركات: 13,108
شكر غيره: 2,919
تم شكره 6,406 مرة في 3,720 مشاركة
عدد المدوّنات: 52
معدل تقييم المستوى: 14553
محمد احمد عسيري يستحق الثقة والتقديرمحمد احمد عسيري يستحق الثقة والتقديرمحمد احمد عسيري يستحق الثقة والتقديرمحمد احمد عسيري يستحق الثقة والتقديرمحمد احمد عسيري يستحق الثقة والتقديرمحمد احمد عسيري يستحق الثقة والتقديرمحمد احمد عسيري يستحق الثقة والتقديرمحمد احمد عسيري يستحق الثقة والتقديرمحمد احمد عسيري يستحق الثقة والتقديرمحمد احمد عسيري يستحق الثقة والتقديرمحمد احمد عسيري يستحق الثقة والتقدير
Exclamation تضرر مقدمة طائرة الخطوط الكويتية A320 أثناء هبوطها في بيروت بسبب اصطدامها بكتلة ثلجية

تعرضت طائرة تابعة للخطوط الجوية الكويتية، الأحد، إلى ضرر في مقدمتها، أثناء هبوطها في مطار بيروت الدولي، وذلك نتيجة للأحوال الجوية السيئة، وفق ما أفاد مراسل "سكاي نيوز عربية" في العاصمة اللبنانية.

ورجحت الوكالة الوطنية للأنباء، أن تكون الطائرة التي كانت تقوم برحلة رقم KU501، قد تعرضت لصاعقة رعدية ضربتها على ارتفاع 8 آلاف قدم، خلال هبوطها في مطار رفيق الحريري الدولي، مما أدى إلى تضرر مقدمتها.

وتعكف مصلحة سلامة الطيران المدني في مطار بيروت بإجراء الفحوص الفنية للطائرة للوقوف على أساب تضررها، علما بأن الطائرة حطت في المطار بسلام.

وأعلنت الخطوط الجوية الكويتية، هبوط طائرتها بسلام بعد ارتطامها بشكل مفاجئ بكتلة ثلجية عابرة، وفق ما ذكرت وكالة الأنباء الكويتية "كونا".

وأضحت الشركة في بيان، أن طائرتها من طراز "إيرباص إيه 320" المتجهة إلى بيروت، "تعرضت لارتطام مفاجئ بكتلة ثلجية عابرة، ويجري العمل على إصلاحها من الفرق الفنية التابعة للشركة".

وتوقعت الشركة عودة الطائرة من بيروت إلى الكويت مساء الأحد، مشيرة إلى أنه تم نقل ركابها إلى أحد الفنادق في العاصمة اللبنانية.

ويضرب لبنان لليوم الثالث على التوالي، منخفض جوي غير مسبوق، مصحوبا برياح باردة وهطول للثلوج على المرتفعات الجبلية في جميع أنحاء البلاد.

وتساقطت الثلوج للمرة الأولى منذ سنوات في أواخر شهر أبريل، ووصل ارتفاعها إلى 900 متر فوق سطح البحر. وعادة لا تتساقط الثلوج في مثل هذا الوقت من العام.


https://www.skynewsarabia.com/middle...B1%D9%88%D8%AA
محمد احمد عسيري غير متواجد حالياً   رد مع اقتباس
قديم 22-04-2019, 08:49 AM  
  مشاركة [ 2 ]
الصورة الرمزية محمد احمد عسيري
محمد احمد عسيري محمد احمد عسيري غير متواجد حالياً
Flying Way
 
تاريخ التسجيل: 16 - 03 - 2011
المشاركات: 13,108
شكر غيره: 2,919
تم شكره 6,406 مرة في 3,720 مشاركة
عدد المدوّنات: 52
معدل تقييم المستوى: 14553
محمد احمد عسيري يستحق الثقة والتقديرمحمد احمد عسيري يستحق الثقة والتقديرمحمد احمد عسيري يستحق الثقة والتقديرمحمد احمد عسيري يستحق الثقة والتقديرمحمد احمد عسيري يستحق الثقة والتقديرمحمد احمد عسيري يستحق الثقة والتقديرمحمد احمد عسيري يستحق الثقة والتقديرمحمد احمد عسيري يستحق الثقة والتقديرمحمد احمد عسيري يستحق الثقة والتقديرمحمد احمد عسيري يستحق الثقة والتقديرمحمد احمد عسيري يستحق الثقة والتقدير

مشاهدة أوسمتي

محمد احمد عسيري محمد احمد عسيري غير متواجد حالياً
Flying Way


الصورة الرمزية محمد احمد عسيري

مشاهدة ملفه الشخصي
تاريخ التسجيل: 16 - 03 - 2011
المشاركات: 13,108
شكر غيره: 2,919
تم شكره 6,406 مرة في 3,720 مشاركة
عدد المدوّنات: 52
معدل تقييم المستوى: 14553
محمد احمد عسيري يستحق الثقة والتقديرمحمد احمد عسيري يستحق الثقة والتقديرمحمد احمد عسيري يستحق الثقة والتقديرمحمد احمد عسيري يستحق الثقة والتقديرمحمد احمد عسيري يستحق الثقة والتقديرمحمد احمد عسيري يستحق الثقة والتقديرمحمد احمد عسيري يستحق الثقة والتقديرمحمد احمد عسيري يستحق الثقة والتقديرمحمد احمد عسيري يستحق الثقة والتقديرمحمد احمد عسيري يستحق الثقة والتقديرمحمد احمد عسيري يستحق الثقة والتقدير
Exclamation رد: تضرر مقدمة طائرة كويتية أثناء هبوطها في بيروت بسبب اصطدامها بكتلة ثلجية


Incident: Kuwait A320 at Beirut on Apr 21st 2019, bent nose


A Kuwait Airways Airbus A320-200, registration 9K-AKG performing flight KU-501 from Kuwait City (Kuwait) to Beirut (Lebanon), was on approach to Beirut's runway 16 descending through about 8000 feet when sort of an impact occurred. The aircraft continued for a safe landing on runway 16.

A post flight inspection revealed a bent nose.

Lebanon's Civil Aviation Authority reported the captain suggested they flew through a cloud of hail at the time, however, the kind of damage, that also was limited to just the nose with no damage to windscreen or other parts of the aircraft, suggests a lightning strike or some object.

The airline reported the aircraft flew through a mass of passing snow.

The aircraft remained on the ground for about 11 hours, then departed for the return flight KU-502.

Metars:
OLBA 201000Z VRB06KT 6000 FEW009 SCT032 14/11 Q1016 RERA NOSIG=
OLBA 2*****Z 24015KT 3900 RA SCT026 BKN037 14/10 Q1017 NOSIG=
OLBA 200900Z 24015KT 8000 -RA SCT050 17/10 Q1017 NOSIG=
OLBA 200800Z 23015KT 8000 FEW031 18/09 Q1017 NOSIG=
OLBA 200700Z 23016KT 8000 FEW031 18/11 Q1016 NOSIG=
OLBA 200600Z 18005KT 130V220 7000 -RA SCT027 15/10 Q1016 NOSIG=
OLBA 200500Z 13008KT 5000 RA BKN027 13/10 Q1016 RERA=

The reshaped nose:


https://avherald.com/h?article=4c6fe1d2&opt=0
محمد احمد عسيري غير متواجد حالياً   رد مع اقتباس
قديم 22-04-2019, 08:51 AM  
  مشاركة [ 3 ]
الصورة الرمزية محمد احمد عسيري
محمد احمد عسيري محمد احمد عسيري غير متواجد حالياً
Flying Way
 
تاريخ التسجيل: 16 - 03 - 2011
المشاركات: 13,108
شكر غيره: 2,919
تم شكره 6,406 مرة في 3,720 مشاركة
عدد المدوّنات: 52
معدل تقييم المستوى: 14553
محمد احمد عسيري يستحق الثقة والتقديرمحمد احمد عسيري يستحق الثقة والتقديرمحمد احمد عسيري يستحق الثقة والتقديرمحمد احمد عسيري يستحق الثقة والتقديرمحمد احمد عسيري يستحق الثقة والتقديرمحمد احمد عسيري يستحق الثقة والتقديرمحمد احمد عسيري يستحق الثقة والتقديرمحمد احمد عسيري يستحق الثقة والتقديرمحمد احمد عسيري يستحق الثقة والتقديرمحمد احمد عسيري يستحق الثقة والتقديرمحمد احمد عسيري يستحق الثقة والتقدير

مشاهدة أوسمتي

محمد احمد عسيري محمد احمد عسيري غير متواجد حالياً
Flying Way


الصورة الرمزية محمد احمد عسيري

مشاهدة ملفه الشخصي
تاريخ التسجيل: 16 - 03 - 2011
المشاركات: 13,108
شكر غيره: 2,919
تم شكره 6,406 مرة في 3,720 مشاركة
عدد المدوّنات: 52
معدل تقييم المستوى: 14553
محمد احمد عسيري يستحق الثقة والتقديرمحمد احمد عسيري يستحق الثقة والتقديرمحمد احمد عسيري يستحق الثقة والتقديرمحمد احمد عسيري يستحق الثقة والتقديرمحمد احمد عسيري يستحق الثقة والتقديرمحمد احمد عسيري يستحق الثقة والتقديرمحمد احمد عسيري يستحق الثقة والتقديرمحمد احمد عسيري يستحق الثقة والتقديرمحمد احمد عسيري يستحق الثقة والتقديرمحمد احمد عسيري يستحق الثقة والتقديرمحمد احمد عسيري يستحق الثقة والتقدير
Exclamation رد: تضرر مقدمة طائرة كويتية أثناء هبوطها في بيروت بسبب اصطدامها بكتلة ثلجية

الخطوط الكويتية: الطائرة المرتطمة بالثلج عادت من لبنان

قالت الخطوط الجویة الكویتیة إن طائرتها التي تعرضت لارتطام مفاجئ بكتلة ثلجیة أثناء هبوطها في مطار رفیق الحریري الدولي بالعاصمة اللبنانیة بیروت امس الأحد في طریق عودتها إلى البلاد بعد إصلاح "العارض الطارئ".

وأوضحت (الكویتیة) في بیان لها الليلة، أن طائرتها، وهي من طراز إیرباص (ايه 320) والمجدولة بالرحلة رقم (501 كي یو) غادرت مطار رفیق الحریري البارحة، ویتوقع وصولها إلى مطار الكویت الدولي صباح اليوم الاثنين.

وكانت الشركة قد أعلنت في وقت سابق هبوط طائراتها "بسلام" وبشكل طبیعي في مطار رفیق الحریري بعد تعرضها لارتطام مفاجئ بكتلة ثلجیة عابرة حیث تم إصلاحها من قبل الفرق الفنیة التابعة، موضحة أنه "تم نقل الركاب إلى الفندق وتم الاعتناء بهم وفقا للسیاسات المتبعة".

https://www.al-jazirahonline.com/news...0190422/149883
محمد احمد عسيري غير متواجد حالياً   رد مع اقتباس
إضافة رد


الذين يشاهدون محتوى الموضوع الآن : 1 ( الأعضاء 0 والزوار 1)
 
أدوات الموضوع إبحث في الموضوع
إبحث في الموضوع:

البحث المتقدم

الانتقال السريع


الساعة الآن 06:37 PM.
Powered by vBulletin® Version 3.8.9
Copyright ©2000 - 2020, vBulletin Solutions, Inc.
حق العلم والمعرفة يعادل حق الحياة للأنسان - لذا نحن كمسؤلين في الشبكة متنازلون عن جميع الحقوق
All trademarks and copyrights held by respective owners. Member comments are owned by the poster.
خط الطيران 2004-2020

 
Copyright FlyingWay © 2020